x

Destruction Island, Wa (desw1) Weather Station

7:00pm - Sat 3rd Dec 2016 All times are PST. -8 hours from GMT.

  • Wind
    18mph, 21mph gusts
  • Air Temp 47°f
  • Sea Pressure 1020.8mb
  • Destruction Island, Wa
  • Destruction Island, Wa

More Historic Weather Station data

Upgrade to MSW Pro to gain access to the past 30 days of data for over 8000 Wavebouys and Weather Stations around the globe.

Join Pro

Comparision Forecast

View Surf forecast
   
Sat 12/03 7:00pm 18 21 mph 1020.8mb 47f
6:00pm 18 20 mph 1021.3mb 47f
5:00pm 23 26 mph 1021.9mb 49f
4:00pm 25 29 mph 1022.7mb 48f
3:00pm 22 24 mph 1023.2mb 51f
2:00pm 18
mph
1024.2mb 50f
1:00pm 11 13 mph 1024.7mb 49f
12:00pm 22 26 mph 1025.4mb 50f
11:00am 14 15 mph 1025.5mb 50f
10:00am 17 18 mph 1025.8mb 50f
9:00am 10 13 mph 1025.5mb 50f
8:00am 14 15 mph 1025mb 50f
7:00am 14 16 mph 1025.7mb 49f
6:00am 10 14 mph 1025mb 47f
5:00am 17
mph
1024.8mb 49f
4:00am 9 11 mph 1024.8mb 49f
3:00am 18 20 mph 1024.5mb 50f
2:00am 15 17 mph 1024.1mb 50f
1:00am 20 22 mph 1024.1mb 49f
12:00am 25 30 mph 1023.5mb 51f
Fri 12/02 11:00pm 18 23 mph 1022.8mb 50f
10:00pm 24 25 mph 1022.1mb 51f
9:00pm 9 11 mph 1021.8mb 49f
8:00pm 22 24 mph 1021.2mb 51f
7:00pm 24 26 mph 1020.5mb 51f
6:00pm 22 23 mph 1020.3mb 51f
5:00pm 21 23 mph 1020mb 52f
4:00pm 22 24 mph 1019.4mb 52f
3:00pm 22 25 mph 1019.1mb 53f
2:00pm 20 21 mph 1019.1mb 51f
1:00pm 36 40 mph 1019.2mb 52f
12:00pm 39 44 mph 1020.1mb 52f
11:00am 26 30 mph 1020.9mb 48f
10:00am 31 36 mph 1021.4mb 48f
9:00am 29 31 mph 1022.1mb 48f
8:00am 28 31 mph 1022.5mb 48f
7:00am 24 28 mph 1022.9mb 48f
6:00am 24 29 mph 1023mb 48f
5:00am 31 33 mph 1023mb 48f
4:00am 26 30 mph 1023.8mb 48f
3:00am 24 26 mph 1024.8mb 48f
2:00am 24 29 mph 1025.1mb 47f
1:00am 24 26 mph 1025.3mb 47f
12:00am 25 26 mph 1025.3mb 47f
Thu 12/01 11:00pm 25 28 mph 1025.3mb 47f
10:00pm 25 28 mph 1025.1mb 47f
9:00pm 22 24 mph 1025.1mb 47f
8:00pm 21 22 mph 1025.4mb 47f
7:00pm 22 23 mph 1025.6mb 47f
6:00pm 21 22 mph 1025.6mb 47f
5:00pm 20 22 mph 1025.5mb 47f
4:00pm 20 22 mph 1025.1mb 46f
3:00pm 20 21 mph 1025.3mb 46f
2:00pm 15 17 mph 1025.1mb 46f
1:00pm 16 18 mph 1025.1mb 46f
12:00pm 14 16 mph 1025.1mb 46f
11:00am 10 13 mph 1025.3mb 46f
9:00am 8 10 mph 1024.5mb 45f
8:00am 7 8 mph 1024.4mb 44f
7:00am 7 9 mph 1024.1mb 44f
6:00am 7 8 mph 1023.5mb 44f
5:00am 10 13 mph 1023.3mb 46f
4:00am 13 14 mph 1023.2mb 48f
3:00am 15 17 mph 1023.3mb 49f
2:00am 15 16 mph 1023mb 47f
1:00am 22 25 mph 1022mb 49f
12:00am 23 26 mph 1021.8mb 48f
Wed 11/30 11:00pm 28 30 mph 1021.3mb 49f
10:00pm 23 24 mph 1021.1mb 49f
9:00pm 28 31 mph 1020.8mb 49f
8:00pm 30 32 mph 1020.4mb 50f
7:00pm 30 33 mph 1019.9mb 50f
6:00pm 28 30 mph 1019.6mb 50f
5:00pm 29 32 mph 1019mb 50f
4:00pm 31 34 mph 1018.7mb 51f
3:00pm 32 34 mph 1017.8mb 51f
2:00pm 34 39 mph 1017.2mb 51f
1:00pm 34 39 mph 1016.9mb 51f
12:00pm 36 40 mph 1016.4mb 51f
11:00am 40 44 mph 1015.9mb 51f
10:00am 38 41 mph 1015.1mb 51f
9:00am 40 45 mph 1013.8mb 51f
8:00am 40 47 mph 1012.3mb 51f
7:00am 41 46 mph 1011.3mb 50f
6:00am 34 40 mph 1010.5mb 50f